Unionville, New York
Current Conditions -  °F | °C
As of 4:53 AM on Friday 19 Dec 2014 (Local Time) from KFWN Reporting Station
Overcast Overcast  
Wind Chill: 30°   Ceiling: 3000
Heat Index: 35°   Visibility: 10mi
Dew Point: 24°   Wind: 6mph
Humidity: 64%   Direction: NA
Pressure: 29.97"   Gusts: NA
Location:  41.3°N, 74.56°W
Report Text: KFWN 190953Z AUTO VRB05KT 10SM OVC030 02/M04 A2997 RMK AO2 SLP151 T00171044
Loading
Personal Weather Stations






























Interactive Weather Map New forecast layout! Learn more

10-Day Weather Forecast

Advertisements
Track Severe Weather on mobile